COOK1: Arkansas River Nr Coolidge, KS

                                SHEF ID:       COOK1     ARKANSAS R NR COOLIDGE, KS
STATION TYPE:
Regulating: Stage = 8.00, Flow = 2050

PRECIP STAGE STAGE(2) RIV-FLOW WTR-TEMP CONDUCT BAT-LOAD
in ft ft cfs F umho/cm volt
Ccp-Rev Ccp-Rev Ccp-Rev Ccp-Rev Ccp-Rev Ccp-Rev Ccp-Rev
(America/Chicago)
06/13 00:00 0.00 2.67 2.70 69 80.19 5674 13.00
06/13 01:00 0.00 2.67 2.68 69 78.94 5693 12.95
06/13 02:00 0.00 2.67 2.69 69 77.76 5742 12.89
06/13 03:00 0.00 2.67 2.70 69 76.89 5755 12.89
06/13 04:00 0.00 2.68 2.69 70 76.24 5746 12.89
06/13 05:00 0.00 2.66 2.70 68 75.36 5747 12.89
06/13 06:00 0.00 2.67 2.70 69 74.28 5746 12.89
06/13 07:00 0.00 2.64 2.68 66 73.20 5728 12.83
06/13 08:00 0.00 2.65 2.68 67 72.70 5729 12.89
06/13 09:00 0.00 2.66 2.69 68 73.15 5746 12.89
06/13 10:00 0.00 2.64 2.69 66 74.55 5773 13.12
06/13 11:00 0.00 2.63 2.68 65 76.55 5816 13.42
06/13 12:00 0.00 2.63 2.69 65 78.89 5859 13.71
06/13 13:00 0.00 2.62 2.69 64 81.32 5922 13.65
06/13 14:00 0.00 2.62 2.68 64 83.73 5953 13.65
06/13 15:00 0.00 2.63 2.68 65 85.89 5954 13.65
06/13 16:00 0.00 2.61 2.67 63 87.84 5956 13.53
06/13 17:00 0.00 2.62 2.66 64 88.75 5972 13.36
06/13 18:00 0.00 2.60 2.68 63 85.91 5998 13.30
06/13 19:00 0.00 2.59 2.67 62 82.83 6041 13.18
06/13 20:00 0.00 2.58 2.65 61 80.91 6068 13.12
06/13 21:00 0.00 2.60 2.64 63 78.89 6086 13.07
06/13 22:00 0.00 2.60 2.64 63 77.86 6134 13.00
06/13 23:00 0.00 2.58 2.63 61 76.35 6192 12.95
Data processed at Fri 14Jun2024 04:30 GMT

Parsing this webpage?

Checkout our new Data API! CWMSDataAPI (CDA)

Timeseries IDs (TSIDs)

TSIDs used from left to right in the data table
COOL.Precip-Inc.Total.1Hour.1Hour.Ccp-Rev
COOL.Stage.Inst.1Hour.0.Ccp-Rev
COOL.Stage-Alt.Inst.1Hour.0.Ccp-Rev
COOL.Flow.Inst.1Hour.0.Ccp-Rev
COOL.Temp-Water.Inst.1Hour.0.Ccp-Rev
COOL.Cond.Inst.1Hour.0.Ccp-Rev
COOL.Volt-Battery Load.Inst.1Hour.0.Ccp-Rev

                            

All information presented herein is the property of the government of the United States of America and may be revised or deleted at any time without prior notice. Dissemination of this information without the expressed written consent of the Public Affairs Office, Tulsa District U.S. Army Corps of Engineers is strictly prohibited. These data are gathered electronically and, as presented, have NOT undergone any form of quality control. These data are NOT guaranteed to be valid or correct.